sensor_id;sensor_type;location;lat;lon;timestamp;P1;durP1;ratioP1;P2;durP2;ratioP2
55609;SDS011;41486;52.502;13.486;2023-08-31T00:00:08;2.70;;;1.73;;
55609;SDS011;41486;52.502;13.486;2023-08-31T00:02:39;2.60;;;2.22;;
55609;SDS011;41486;52.502;13.486;2023-08-31T00:05:08;2.88;;;2.58;;
55609;SDS011;41486;52.502;13.486;2023-08-31T00:07:36;2.80;;;2.00;;
55609;SDS011;41486;52.502;13.486;2023-08-31T00:10:05;2.08;;;1.88;;
55609;SDS011;41486;52.502;13.486;2023-08-31T00:12:36;2.25;;;1.77;;
55609;SDS011;41486;52.502;13.486;2023-08-31T00:15:05;3.28;;;1.83;;
55609;SDS011;41486;52.502;13.486;2023-08-31T00:17:35;2.40;;;2.05;;
55609;SDS011;41486;52.502;13.486;2023-08-31T00:20:07;2.20;;;1.90;;
55609;SDS011;41486;52.502;13.486;2023-08-31T00:25:07;2.20;;;2.00;;
55609;SDS011;41486;52.502;13.486;2023-08-31T00:27:35;2.70;;;2.47;;
55609;SDS011;41486;52.502;13.486;2023-08-31T00:30:04;2.30;;;2.10;;
55609;SDS011;41486;52.502;13.486;2023-08-31T00:32:34;2.55;;;2.33;;
55609;SDS011;41486;52.502;13.486;2023-08-31T00:35:03;2.13;;;1.90;;
55609;SDS011;41486;52.502;13.486;2023-08-31T00:37:33;2.50;;;2.30;;
55609;SDS011;41486;52.502;13.486;2023-08-31T00:40:01;2.72;;;2.00;;
55609;SDS011;41486;52.502;13.486;2023-08-31T00:42:31;2.30;;;1.90;;
55609;SDS011;41486;52.502;13.486;2023-08-31T00:44:59;2.58;;;2.30;;
55609;SDS011;41486;52.502;13.486;2023-08-31T00:47:27;2.30;;;2.10;;
55609;SDS011;41486;52.502;13.486;2023-08-31T00:49:55;3.03;;;2.05;;
55609;SDS011;41486;52.502;13.486;2023-08-31T00:52:23;2.90;;;2.40;;
55609;SDS011;41486;52.502;13.486;2023-08-31T00:54:53;2.38;;;2.17;;
55609;SDS011;41486;52.502;13.486;2023-08-31T00:57:23;4.20;;;2.42;;
55609;SDS011;41486;52.502;13.486;2023-08-31T00:59:53;3.92;;;2.47;;
55609;SDS011;41486;52.502;13.486;2023-08-31T01:02:22;4.22;;;2.28;;
55609;SDS011;41486;52.502;13.486;2023-08-31T01:05:17;2.42;;;2.00;;
55609;SDS011;41486;52.502;13.486;2023-08-31T01:07:59;2.85;;;2.53;;
55609;SDS011;41486;52.502;13.486;2023-08-31T01:10:41;2.97;;;2.17;;
55609;SDS011;41486;52.502;13.486;2023-08-31T01:13:17;4.20;;;2.80;;
55609;SDS011;41486;52.502;13.486;2023-08-31T01:15:51;2.85;;;2.30;;
55609;SDS011;41486;52.502;13.486;2023-08-31T01:18:22;3.13;;;2.28;;
55609;SDS011;41486;52.502;13.486;2023-08-31T01:20:52;2.33;;;2.10;;
55609;SDS011;41486;52.502;13.486;2023-08-31T01:23:29;3.55;;;2.17;;
55609;SDS011;41486;52.502;13.486;2023-08-31T01:26:04;2.17;;;1.83;;
55609;SDS011;41486;52.502;13.486;2023-08-31T01:28:32;2.38;;;2.03;;
55609;SDS011;41486;52.502;13.486;2023-08-31T01:31:03;2.30;;;1.75;;
55609;SDS011;41486;52.502;13.486;2023-08-31T01:33:32;1.83;;;1.42;;
55609;SDS011;41486;52.502;13.486;2023-08-31T01:36:00;2.22;;;1.80;;
55609;SDS011;41486;52.502;13.486;2023-08-31T01:38:35;2.17;;;1.73;;
55609;SDS011;41486;52.502;13.486;2023-08-31T01:41:10;4.68;;;2.10;;
55609;SDS011;41486;52.502;13.486;2023-08-31T01:43:44;4.40;;;2.30;;
55609;SDS011;41486;52.502;13.486;2023-08-31T01:46:13;2.20;;;1.98;;
55609;SDS011;41486;52.502;13.486;2023-08-31T01:48:43;2.95;;;1.83;;
55609;SDS011;41486;52.502;13.486;2023-08-31T01:51:11;2.30;;;1.90;;
55609;SDS011;41486;52.502;13.486;2023-08-31T01:53:39;2.10;;;1.90;;
55609;SDS011;41486;52.502;13.486;2023-08-31T01:56:08;2.50;;;2.00;;
55609;SDS011;41486;52.502;13.486;2023-08-31T01:58:36;2.30;;;1.63;;
55609;SDS011;41486;52.502;13.486;2023-08-31T02:01:04;1.90;;;1.42;;
55609;SDS011;41486;52.502;13.486;2023-08-31T02:03:32;2.22;;;1.27;;
55609;SDS011;41486;52.502;13.486;2023-08-31T02:06:01;1.88;;;1.60;;
55609;SDS011;41486;52.502;13.486;2023-08-31T02:08:31;2.03;;;1.70;;
55609;SDS011;41486;52.502;13.486;2023-08-31T02:10:59;2.05;;;1.67;;
55609;SDS011;41486;52.502;13.486;2023-08-31T02:13:29;1.85;;;1.45;;
55609;SDS011;41486;52.502;13.486;2023-08-31T02:15:57;3.30;;;2.00;;
55609;SDS011;41486;52.502;13.486;2023-08-31T02:18:26;1.60;;;1.50;;
55609;SDS011;41486;52.502;13.486;2023-08-31T02:20:54;1.75;;;1.33;;
55609;SDS011;41486;52.502;13.486;2023-08-31T02:23:22;2.05;;;1.83;;
55609;SDS011;41486;52.502;13.486;2023-08-31T02:25:50;1.77;;;1.67;;
55609;SDS011;41486;52.502;13.486;2023-08-31T02:28:18;1.63;;;1.30;;
55609;SDS011;41486;52.502;13.486;2023-08-31T02:30:56;1.50;;;1.08;;
55609;SDS011;41486;52.502;13.486;2023-08-31T02:33:29;0.98;;;0.85;;
55609;SDS011;41486;52.502;13.486;2023-08-31T02:35:58;2.00;;;1.15;;
55609;SDS011;41486;52.502;13.486;2023-08-31T02:38:26;0.93;;;0.90;;
55609;SDS011;41486;52.502;13.486;2023-08-31T02:40:54;1.10;;;0.80;;
55609;SDS011;41486;52.502;13.486;2023-08-31T02:43:22;1.33;;;1.02;;
55609;SDS011;41486;52.502;13.486;2023-08-31T02:45:59;1.65;;;1.27;;
55609;SDS011;41486;52.502;13.486;2023-08-31T02:48:27;1.63;;;1.25;;
55609;SDS011;41486;52.502;13.486;2023-08-31T02:50:56;3.60;;;1.38;;
55609;SDS011;41486;52.502;13.486;2023-08-31T02:53:25;2.92;;;1.10;;
55609;SDS011;41486;52.502;13.486;2023-08-31T02:55:53;1.95;;;1.08;;
55609;SDS011;41486;52.502;13.486;2023-08-31T02:58:21;1.33;;;1.00;;
55609;SDS011;41486;52.502;13.486;2023-08-31T03:00:49;2.20;;;1.33;;
55609;SDS011;41486;52.502;13.486;2023-08-31T03:03:19;1.27;;;1.08;;
55609;SDS011;41486;52.502;13.486;2023-08-31T03:05:47;2.65;;;1.40;;
55609;SDS011;41486;52.502;13.486;2023-08-31T03:08:15;1.67;;;1.10;;
55609;SDS011;41486;52.502;13.486;2023-08-31T03:10:43;1.85;;;1.42;;
55609;SDS011;41486;52.502;13.486;2023-08-31T03:13:13;1.75;;;1.40;;
55609;SDS011;41486;52.502;13.486;2023-08-31T03:15:41;2.80;;;1.88;;
55609;SDS011;41486;52.502;13.486;2023-08-31T03:18:09;2.42;;;1.63;;
55609;SDS011;41486;52.502;13.486;2023-08-31T03:20:38;2.28;;;1.40;;
55609;SDS011;41486;52.502;13.486;2023-08-31T03:23:07;2.42;;;1.38;;
55609;SDS011;41486;52.502;13.486;2023-08-31T03:25:36;1.50;;;1.10;;
55609;SDS011;41486;52.502;13.486;2023-08-31T03:28:06;1.48;;;1.10;;
55609;SDS011;41486;52.502;13.486;2023-08-31T03:30:35;1.85;;;1.15;;
55609;SDS011;41486;52.502;13.486;2023-08-31T03:33:03;2.05;;;1.20;;
55609;SDS011;41486;52.502;13.486;2023-08-31T03:35:32;2.28;;;1.60;;
55609;SDS011;41486;52.502;13.486;2023-08-31T03:38:02;1.75;;;1.23;;
55609;SDS011;41486;52.502;13.486;2023-08-31T03:40:33;2.03;;;1.42;;
55609;SDS011;41486;52.502;13.486;2023-08-31T03:43:02;1.52;;;1.33;;
55609;SDS011;41486;52.502;13.486;2023-08-31T03:45:30;1.10;;;1.00;;
55609;SDS011;41486;52.502;13.486;2023-08-31T03:47:58;1.58;;;1.17;;
55609;SDS011;41486;52.502;13.486;2023-08-31T03:50:28;2.15;;;1.17;;
55609;SDS011;41486;52.502;13.486;2023-08-31T03:52:56;1.60;;;1.33;;
55609;SDS011;41486;52.502;13.486;2023-08-31T03:55:25;1.40;;;1.10;;
55609;SDS011;41486;52.502;13.486;2023-08-31T03:57:55;1.48;;;1.15;;
55609;SDS011;41486;52.502;13.486;2023-08-31T04:00:25;1.70;;;1.13;;
55609;SDS011;41486;52.502;13.486;2023-08-31T04:02:53;2.30;;;1.60;;
55609;SDS011;41486;52.502;13.486;2023-08-31T04:05:23;2.03;;;1.48;;
55609;SDS011;41486;52.502;13.486;2023-08-31T04:07:51;1.73;;;1.40;;
55609;SDS011;41486;52.502;13.486;2023-08-31T04:10:19;4.50;;;1.73;;
55609;SDS011;41486;52.502;13.486;2023-08-31T04:12:49;2.33;;;1.60;;
55609;SDS011;41486;52.502;13.486;2023-08-31T04:15:17;1.75;;;1.50;;
55609;SDS011;41486;52.502;13.486;2023-08-31T04:17:45;2.47;;;1.80;;
55609;SDS011;41486;52.502;13.486;2023-08-31T04:20:13;2.05;;;1.80;;
55609;SDS011;41486;52.502;13.486;2023-08-31T04:22:41;2.67;;;1.92;;
55609;SDS011;41486;52.502;13.486;2023-08-31T04:25:11;2.85;;;2.08;;
55609;SDS011;41486;52.502;13.486;2023-08-31T04:27:39;2.90;;;2.10;;
55609;SDS011;41486;52.502;13.486;2023-08-31T04:30:11;2.97;;;2.20;;
55609;SDS011;41486;52.502;13.486;2023-08-31T04:32:39;2.53;;;2.28;;
55609;SDS011;41486;52.502;13.486;2023-08-31T04:35:08;12.63;;;2.72;;
55609;SDS011;41486;52.502;13.486;2023-08-31T04:37:36;4.63;;;2.97;;
55609;SDS011;41486;52.502;13.486;2023-08-31T04:40:05;3.03;;;2.65;;
55609;SDS011;41486;52.502;13.486;2023-08-31T04:42:35;4.47;;;2.65;;
55609;SDS011;41486;52.502;13.486;2023-08-31T04:45:03;3.60;;;2.92;;
55609;SDS011;41486;52.502;13.486;2023-08-31T04:47:34;4.57;;;2.72;;
55609;SDS011;41486;52.502;13.486;2023-08-31T04:50:02;3.47;;;2.63;;
55609;SDS011;41486;52.502;13.486;2023-08-31T04:52:33;3.97;;;2.65;;
55609;SDS011;41486;52.502;13.486;2023-08-31T04:55:01;3.95;;;3.03;;
55609;SDS011;41486;52.502;13.486;2023-08-31T04:57:31;4.25;;;3.15;;
55609;SDS011;41486;52.502;13.486;2023-08-31T04:59:59;6.53;;;2.70;;
55609;SDS011;41486;52.502;13.486;2023-08-31T05:02:27;5.57;;;3.67;;
55609;SDS011;41486;52.502;13.486;2023-08-31T05:04:57;7.80;;;2.55;;
55609;SDS011;41486;52.502;13.486;2023-08-31T05:07:25;4.78;;;3.42;;
55609;SDS011;41486;52.502;13.486;2023-08-31T05:09:53;5.18;;;3.35;;
55609;SDS011;41486;52.502;13.486;2023-08-31T05:12:21;3.60;;;2.65;;
55609;SDS011;41486;52.502;13.486;2023-08-31T05:14:49;3.83;;;3.42;;
55609;SDS011;41486;52.502;13.486;2023-08-31T05:17:16;4.60;;;2.80;;
55609;SDS011;41486;52.502;13.486;2023-08-31T05:19:45;4.82;;;3.35;;
55609;SDS011;41486;52.502;13.486;2023-08-31T05:22:15;5.53;;;3.92;;
55609;SDS011;41486;52.502;13.486;2023-08-31T05:24:42;6.63;;;3.60;;
55609;SDS011;41486;52.502;13.486;2023-08-31T05:27:11;5.22;;;3.60;;
55609;SDS011;41486;52.502;13.486;2023-08-31T05:29:39;4.93;;;3.53;;
55609;SDS011;41486;52.502;13.486;2023-08-31T05:32:07;4.18;;;3.70;;
55609;SDS011;41486;52.502;13.486;2023-08-31T05:34:35;4.20;;;3.25;;
55609;SDS011;41486;52.502;13.486;2023-08-31T05:37:06;5.43;;;3.40;;
55609;SDS011;41486;52.502;13.486;2023-08-31T05:39:35;5.60;;;3.13;;
55609;SDS011;41486;52.502;13.486;2023-08-31T05:42:03;4.00;;;3.42;;
55609;SDS011;41486;52.502;13.486;2023-08-31T05:44:32;5.25;;;3.60;;
55609;SDS011;41486;52.502;13.486;2023-08-31T05:47:00;4.78;;;3.38;;
55609;SDS011;41486;52.502;13.486;2023-08-31T05:49:28;5.03;;;3.67;;
55609;SDS011;41486;52.502;13.486;2023-08-31T05:51:56;7.95;;;3.88;;
55609;SDS011;41486;52.502;13.486;2023-08-31T05:54:24;10.68;;;6.45;;
55609;SDS011;41486;52.502;13.486;2023-08-31T05:56:55;5.13;;;3.78;;
55609;SDS011;41486;52.502;13.486;2023-08-31T05:59:23;5.13;;;3.50;;
55609;SDS011;41486;52.502;13.486;2023-08-31T06:01:51;4.78;;;3.45;;
55609;SDS011;41486;52.502;13.486;2023-08-31T06:04:21;2.92;;;2.30;;
55609;SDS011;41486;52.502;13.486;2023-08-31T06:06:50;5.88;;;4.25;;
55609;SDS011;41486;52.502;13.486;2023-08-31T06:09:20;4.72;;;3.67;;
55609;SDS011;41486;52.502;13.486;2023-08-31T06:11:48;4.68;;;3.67;;
55609;SDS011;41486;52.502;13.486;2023-08-31T06:14:18;4.20;;;2.92;;
55609;SDS011;41486;52.502;13.486;2023-08-31T06:16:46;6.32;;;3.80;;
55609;SDS011;41486;52.502;13.486;2023-08-31T06:19:15;4.28;;;3.25;;
55609;SDS011;41486;52.502;13.486;2023-08-31T06:21:43;5.13;;;3.67;;
55609;SDS011;41486;52.502;13.486;2023-08-31T06:24:11;7.63;;;4.68;;
55609;SDS011;41486;52.502;13.486;2023-08-31T06:26:39;5.50;;;3.63;;
55609;SDS011;41486;52.502;13.486;2023-08-31T06:29:08;4.53;;;3.30;;
55609;SDS011;41486;52.502;13.486;2023-08-31T06:31:38;6.45;;;3.38;;
55609;SDS011;41486;52.502;13.486;2023-08-31T06:34:06;4.78;;;3.25;;
55609;SDS011;41486;52.502;13.486;2023-08-31T06:36:34;4.18;;;3.33;;
55609;SDS011;41486;52.502;13.486;2023-08-31T06:39:03;3.72;;;3.20;;
55609;SDS011;41486;52.502;13.486;2023-08-31T06:41:33;5.72;;;3.65;;
55609;SDS011;41486;52.502;13.486;2023-08-31T06:44:01;4.50;;;3.42;;
55609;SDS011;41486;52.502;13.486;2023-08-31T06:46:30;4.82;;;3.17;;
55609;SDS011;41486;52.502;13.486;2023-08-31T06:49:01;8.27;;;3.50;;
55609;SDS011;41486;52.502;13.486;2023-08-31T06:51:31;4.45;;;3.72;;
55609;SDS011;41486;52.502;13.486;2023-08-31T06:53:59;4.32;;;3.38;;
55609;SDS011;41486;52.502;13.486;2023-08-31T06:56:32;5.55;;;3.30;;
55609;SDS011;41486;52.502;13.486;2023-08-31T06:59:01;4.15;;;3.40;;
55609;SDS011;41486;52.502;13.486;2023-08-31T07:01:30;4.22;;;3.35;;
55609;SDS011;41486;52.502;13.486;2023-08-31T07:03:59;5.15;;;3.15;;
55609;SDS011;41486;52.502;13.486;2023-08-31T07:06:29;4.47;;;3.13;;
55609;SDS011;41486;52.502;13.486;2023-08-31T07:08:58;3.67;;;2.88;;
55609;SDS011;41486;52.502;13.486;2023-08-31T07:11:26;4.93;;;3.97;;
55609;SDS011;41486;52.502;13.486;2023-08-31T07:13:55;8.20;;;5.13;;
55609;SDS011;41486;52.502;13.486;2023-08-31T07:16:24;4.32;;;3.58;;
55609;SDS011;41486;52.502;13.486;2023-08-31T07:18:52;4.93;;;3.13;;
55609;SDS011;41486;52.502;13.486;2023-08-31T07:21:23;4.50;;;3.25;;
55609;SDS011;41486;52.502;13.486;2023-08-31T07:23:54;6.93;;;3.45;;
55609;SDS011;41486;52.502;13.486;2023-08-31T07:26:23;4.80;;;3.13;;
55609;SDS011;41486;52.502;13.486;2023-08-31T07:28:51;5.10;;;2.17;;
55609;SDS011;41486;52.502;13.486;2023-08-31T07:31:20;4.90;;;2.92;;
55609;SDS011;41486;52.502;13.486;2023-08-31T07:33:49;7.15;;;2.70;;
55609;SDS011;41486;52.502;13.486;2023-08-31T07:36:17;3.95;;;3.00;;
55609;SDS011;41486;52.502;13.486;2023-08-31T07:38:45;4.43;;;2.25;;
55609;SDS011;41486;52.502;13.486;2023-08-31T07:41:15;3.60;;;2.65;;
55609;SDS011;41486;52.502;13.486;2023-08-31T07:43:43;4.88;;;2.92;;
55609;SDS011;41486;52.502;13.486;2023-08-31T07:46:29;6.97;;;2.83;;
55609;SDS011;41486;52.502;13.486;2023-08-31T07:48:57;7.03;;;3.70;;
55609;SDS011;41486;52.502;13.486;2023-08-31T07:51:25;5.90;;;2.70;;
55609;SDS011;41486;52.502;13.486;2023-08-31T07:53:54;2.60;;;2.40;;
55609;SDS011;41486;52.502;13.486;2023-08-31T07:56:23;3.35;;;2.80;;
55609;SDS011;41486;52.502;13.486;2023-08-31T07:58:52;3.20;;;2.70;;
55609;SDS011;41486;52.502;13.486;2023-08-31T08:01:20;3.47;;;3.13;;
55609;SDS011;41486;52.502;13.486;2023-08-31T08:03:48;5.20;;;3.28;;
55609;SDS011;41486;52.502;13.486;2023-08-31T08:06:17;5.05;;;2.60;;
55609;SDS011;41486;52.502;13.486;2023-08-31T08:08:47;4.55;;;2.50;;
55609;SDS011;41486;52.502;13.486;2023-08-31T08:11:15;2.47;;;1.60;;
55609;SDS011;41486;52.502;13.486;2023-08-31T08:13:45;3.22;;;1.92;;
55609;SDS011;41486;52.502;13.486;2023-08-31T08:16:13;4.25;;;2.42;;
55609;SDS011;41486;52.502;13.486;2023-08-31T08:18:41;3.88;;;1.95;;
55609;SDS011;41486;52.502;13.486;2023-08-31T08:21:09;2.95;;;2.35;;
55609;SDS011;41486;52.502;13.486;2023-08-31T08:23:37;4.35;;;1.80;;
55609;SDS011;41486;52.502;13.486;2023-08-31T08:26:06;3.63;;;1.95;;
55609;SDS011;41486;52.502;13.486;2023-08-31T08:28:34;2.33;;;1.85;;
55609;SDS011;41486;52.502;13.486;2023-08-31T08:31:04;4.13;;;1.92;;
55609;SDS011;41486;52.502;13.486;2023-08-31T08:33:33;4.93;;;1.80;;
55609;SDS011;41486;52.502;13.486;2023-08-31T08:36:01;2.00;;;1.52;;
55609;SDS011;41486;52.502;13.486;2023-08-31T08:38:30;3.55;;;1.80;;
55609;SDS011;41486;52.502;13.486;2023-08-31T08:40:58;3.45;;;1.95;;
55609;SDS011;41486;52.502;13.486;2023-08-31T08:43:32;2.42;;;1.58;;
55609;SDS011;41486;52.502;13.486;2023-08-31T08:46:02;5.07;;;1.50;;
55609;SDS011;41486;52.502;13.486;2023-08-31T08:48:34;3.63;;;1.50;;
55609;SDS011;41486;52.502;13.486;2023-08-31T08:51:02;3.78;;;1.15;;
55609;SDS011;41486;52.502;13.486;2023-08-31T08:53:31;4.00;;;1.55;;
55609;SDS011;41486;52.502;13.486;2023-08-31T08:56:00;2.65;;;1.40;;
55609;SDS011;41486;52.502;13.486;2023-08-31T08:58:29;1.98;;;1.27;;
55609;SDS011;41486;52.502;13.486;2023-08-31T09:00:57;2.25;;;0.73;;
55609;SDS011;41486;52.502;13.486;2023-08-31T09:03:27;1.20;;;1.10;;
55609;SDS011;41486;52.502;13.486;2023-08-31T09:05:55;3.33;;;1.30;;
55609;SDS011;41486;52.502;13.486;2023-08-31T09:08:25;3.45;;;1.23;;
55609;SDS011;41486;52.502;13.486;2023-08-31T09:10:56;1.85;;;1.20;;
55609;SDS011;41486;52.502;13.486;2023-08-31T09:13:26;1.08;;;1.00;;
55609;SDS011;41486;52.502;13.486;2023-08-31T09:15:55;3.55;;;0.95;;
55609;SDS011;41486;52.502;13.486;2023-08-31T09:18:25;2.53;;;1.05;;
55609;SDS011;41486;52.502;13.486;2023-08-31T09:20:56;5.05;;;1.10;;
55609;SDS011;41486;52.502;13.486;2023-08-31T09:23:24;2.88;;;1.30;;
55609;SDS011;41486;52.502;13.486;2023-08-31T09:25:53;2.47;;;1.00;;
55609;SDS011;41486;52.502;13.486;2023-08-31T09:28:22;1.35;;;1.17;;
55609;SDS011;41486;52.502;13.486;2023-08-31T09:30:55;3.10;;;1.25;;
55609;SDS011;41486;52.502;13.486;2023-08-31T09:33:34;2.17;;;1.10;;
55609;SDS011;41486;52.502;13.486;2023-08-31T09:36:02;3.33;;;1.08;;
55609;SDS011;41486;52.502;13.486;2023-08-31T09:38:36;1.85;;;1.10;;
55609;SDS011;41486;52.502;13.486;2023-08-31T09:41:09;2.08;;;1.02;;
55609;SDS011;41486;52.502;13.486;2023-08-31T09:43:37;2.10;;;1.00;;
55609;SDS011;41486;52.502;13.486;2023-08-31T09:46:05;2.40;;;1.00;;
55609;SDS011;41486;52.502;13.486;2023-08-31T09:48:36;1.95;;;1.15;;
55609;SDS011;41486;52.502;13.486;2023-08-31T09:51:07;3.90;;;1.45;;
55609;SDS011;41486;52.502;13.486;2023-08-31T09:53:37;2.28;;;1.40;;
55609;SDS011;41486;52.502;13.486;2023-08-31T09:56:06;3.25;;;1.25;;
55609;SDS011;41486;52.502;13.486;2023-08-31T09:58:35;2.90;;;1.20;;
55609;SDS011;41486;52.502;13.486;2023-08-31T10:01:03;1.38;;;1.10;;
55609;SDS011;41486;52.502;13.486;2023-08-31T10:03:51;5.45;;;2.15;;
55609;SDS011;41486;52.502;13.486;2023-08-31T10:06:19;1.05;;;0.90;;
55609;SDS011;41486;52.502;13.486;2023-08-31T10:08:49;1.67;;;1.15;;
55609;SDS011;41486;52.502;13.486;2023-08-31T10:11:18;1.13;;;0.88;;
55609;SDS011;41486;52.502;13.486;2023-08-31T10:13:47;2.10;;;1.17;;
55609;SDS011;41486;52.502;13.486;2023-08-31T10:16:16;2.28;;;0.93;;
55609;SDS011;41486;52.502;13.486;2023-08-31T10:18:46;2.28;;;0.95;;
55609;SDS011;41486;52.502;13.486;2023-08-31T10:21:17;1.90;;;1.08;;
55609;SDS011;41486;52.502;13.486;2023-08-31T10:23:46;1.65;;;0.90;;
55609;SDS011;41486;52.502;13.486;2023-08-31T10:26:22;0.90;;;0.75;;
55609;SDS011;41486;52.502;13.486;2023-08-31T10:28:51;1.15;;;0.65;;
55609;SDS011;41486;52.502;13.486;2023-08-31T10:31:20;0.63;;;0.50;;
55609;SDS011;41486;52.502;13.486;2023-08-31T10:33:54;1.33;;;0.75;;
55609;SDS011;41486;52.502;13.486;2023-08-31T10:36:36;2.00;;;0.80;;
55609;SDS011;41486;52.502;13.486;2023-08-31T10:39:11;1.20;;;0.80;;
55609;SDS011;41486;52.502;13.486;2023-08-31T10:41:40;2.47;;;0.80;;
55609;SDS011;41486;52.502;13.486;2023-08-31T10:44:18;1.17;;;0.80;;
55609;SDS011;41486;52.502;13.486;2023-08-31T10:46:47;0.73;;;0.60;;
55609;SDS011;41486;52.502;13.486;2023-08-31T10:49:17;1.85;;;1.25;;
55609;SDS011;41486;52.502;13.486;2023-08-31T10:51:48;6.07;;;1.25;;
55609;SDS011;41486;52.502;13.486;2023-08-31T10:54:21;1.15;;;0.90;;
55609;SDS011;41486;52.502;13.486;2023-08-31T10:56:54;1.10;;;1.00;;
55609;SDS011;41486;52.502;13.486;2023-08-31T10:59:42;2.13;;;0.98;;
55609;SDS011;41486;52.502;13.486;2023-08-31T11:02:31;1.42;;;0.77;;
55609;SDS011;41486;52.502;13.486;2023-08-31T11:05:06;3.25;;;1.20;;
55609;SDS011;41486;52.502;13.486;2023-08-31T11:07:36;3.60;;;0.88;;
55609;SDS011;41486;52.502;13.486;2023-08-31T11:10:07;1.20;;;1.10;;
55609;SDS011;41486;52.502;13.486;2023-08-31T11:12:40;3.97;;;1.20;;
55609;SDS011;41486;52.502;13.486;2023-08-31T11:15:10;2.83;;;1.75;;
55609;SDS011;41486;52.502;13.486;2023-08-31T11:17:40;1.65;;;1.40;;
55609;SDS011;41486;52.502;13.486;2023-08-31T11:20:12;3.15;;;1.40;;
55609;SDS011;41486;52.502;13.486;2023-08-31T11:25:13;5.55;;;2.25;;
55609;SDS011;41486;52.502;13.486;2023-08-31T11:27:42;2.10;;;1.30;;
55609;SDS011;41486;52.502;13.486;2023-08-31T11:30:20;1.65;;;1.10;;
55609;SDS011;41486;52.502;13.486;2023-08-31T11:32:49;3.10;;;1.13;;
55609;SDS011;41486;52.502;13.486;2023-08-31T11:35:18;2.13;;;1.00;;
55609;SDS011;41486;52.502;13.486;2023-08-31T11:37:50;1.92;;;1.00;;
55609;SDS011;41486;52.502;13.486;2023-08-31T11:40:20;2.00;;;0.98;;
55609;SDS011;41486;52.502;13.486;2023-08-31T11:42:48;2.75;;;0.90;;
55609;SDS011;41486;52.502;13.486;2023-08-31T11:45:16;1.42;;;1.17;;
55609;SDS011;41486;52.502;13.486;2023-08-31T11:47:46;3.10;;;1.10;;
55609;SDS011;41486;52.502;13.486;2023-08-31T11:50:17;2.45;;;1.35;;
55609;SDS011;41486;52.502;13.486;2023-08-31T11:52:47;4.88;;;1.35;;
55609;SDS011;41486;52.502;13.486;2023-08-31T11:55:17;1.48;;;0.88;;
55609;SDS011;41486;52.502;13.486;2023-08-31T11:57:48;2.28;;;0.90;;
55609;SDS011;41486;52.502;13.486;2023-08-31T12:00:17;2.03;;;1.00;;
55609;SDS011;41486;52.502;13.486;2023-08-31T12:02:53;1.90;;;1.10;;
55609;SDS011;41486;52.502;13.486;2023-08-31T12:05:25;1.20;;;1.00;;
55609;SDS011;41486;52.502;13.486;2023-08-31T12:07:53;1.90;;;1.10;;
55609;SDS011;41486;52.502;13.486;2023-08-31T12:10:25;1.55;;;1.13;;
55609;SDS011;41486;52.502;13.486;2023-08-31T12:12:54;4.35;;;1.30;;
55609;SDS011;41486;52.502;13.486;2023-08-31T12:15:35;2.03;;;1.40;;
55609;SDS011;41486;52.502;13.486;2023-08-31T12:18:06;6.20;;;3.17;;
55609;SDS011;41486;52.502;13.486;2023-08-31T12:20:41;13.05;;;2.80;;
55609;SDS011;41486;52.502;13.486;2023-08-31T12:23:11;2.88;;;1.45;;
55609;SDS011;41486;52.502;13.486;2023-08-31T12:25:46;5.03;;;1.60;;
55609;SDS011;41486;52.502;13.486;2023-08-31T12:31:58;5.95;;;1.50;;
55609;SDS011;41486;52.502;13.486;2023-08-31T12:34:28;1.95;;;1.20;;
55609;SDS011;41486;52.502;13.486;2023-08-31T12:36:57;2.70;;;1.13;;
55609;SDS011;41486;52.502;13.486;2023-08-31T12:39:27;1.65;;;1.20;;
55609;SDS011;41486;52.502;13.486;2023-08-31T12:41:56;2.17;;;1.38;;
55609;SDS011;41486;52.502;13.486;2023-08-31T12:44:46;2.80;;;1.50;;
55609;SDS011;41486;52.502;13.486;2023-08-31T12:47:14;5.45;;;1.73;;
55609;SDS011;41486;52.502;13.486;2023-08-31T12:49:42;2.10;;;1.60;;
55609;SDS011;41486;52.502;13.486;2023-08-31T12:52:10;3.42;;;1.75;;
55609;SDS011;41486;52.502;13.486;2023-08-31T12:54:38;3.42;;;1.70;;
55609;SDS011;41486;52.502;13.486;2023-08-31T12:57:08;2.72;;;1.67;;
55609;SDS011;41486;52.502;13.486;2023-08-31T12:59:36;3.10;;;2.03;;
55609;SDS011;41486;52.502;13.486;2023-08-31T13:02:03;2.42;;;1.70;;
55609;SDS011;41486;52.502;13.486;2023-08-31T13:04:36;1.73;;;1.30;;
55609;SDS011;41486;52.502;13.486;2023-08-31T13:07:07;2.30;;;1.20;;
55609;SDS011;41486;52.502;13.486;2023-08-31T13:09:38;2.30;;;1.10;;
55609;SDS011;41486;52.502;13.486;2023-08-31T13:12:08;4.15;;;1.00;;
55609;SDS011;41486;52.502;13.486;2023-08-31T13:14:36;2.78;;;1.10;;
55609;SDS011;41486;52.502;13.486;2023-08-31T13:17:05;1.00;;;0.88;;
55609;SDS011;41486;52.502;13.486;2023-08-31T13:19:33;1.15;;;0.85;;
55609;SDS011;41486;52.502;13.486;2023-08-31T13:22:02;2.38;;;1.00;;
55609;SDS011;41486;52.502;13.486;2023-08-31T13:24:30;1.60;;;1.02;;
55609;SDS011;41486;52.502;13.486;2023-08-31T13:26:58;1.05;;;0.90;;
55609;SDS011;41486;52.502;13.486;2023-08-31T13:29:27;1.15;;;0.93;;
55609;SDS011;41486;52.502;13.486;2023-08-31T13:31:55;1.00;;;0.90;;
55609;SDS011;41486;52.502;13.486;2023-08-31T13:34:24;1.52;;;1.00;;
55609;SDS011;41486;52.502;13.486;2023-08-31T13:36:52;1.58;;;0.90;;
55609;SDS011;41486;52.502;13.486;2023-08-31T13:39:20;2.88;;;1.08;;
55609;SDS011;41486;52.502;13.486;2023-08-31T13:41:50;1.17;;;0.90;;
55609;SDS011;41486;52.502;13.486;2023-08-31T13:44:19;1.45;;;1.00;;
55609;SDS011;41486;52.502;13.486;2023-08-31T13:46:51;1.00;;;0.90;;
55609;SDS011;41486;52.502;13.486;2023-08-31T13:49:19;0.85;;;0.77;;
55609;SDS011;41486;52.502;13.486;2023-08-31T13:51:47;1.10;;;1.00;;
55609;SDS011;41486;52.502;13.486;2023-08-31T13:54:15;1.30;;;0.77;;
55609;SDS011;41486;52.502;13.486;2023-08-31T13:56:43;1.10;;;1.00;;
55609;SDS011;41486;52.502;13.486;2023-08-31T13:59:11;1.20;;;1.02;;
55609;SDS011;41486;52.502;13.486;2023-08-31T14:01:39;2.17;;;0.93;;
55609;SDS011;41486;52.502;13.486;2023-08-31T14:04:09;1.48;;;1.00;;
55609;SDS011;41486;52.502;13.486;2023-08-31T14:06:37;2.25;;;0.90;;
55609;SDS011;41486;52.502;13.486;2023-08-31T14:09:05;0.73;;;0.70;;
55609;SDS011;41486;52.502;13.486;2023-08-31T14:11:34;1.10;;;0.90;;
55609;SDS011;41486;52.502;13.486;2023-08-31T14:14:06;0.90;;;0.70;;
55609;SDS011;41486;52.502;13.486;2023-08-31T14:16:38;2.92;;;1.17;;
55609;SDS011;41486;52.502;13.486;2023-08-31T14:19:06;1.23;;;0.90;;
55609;SDS011;41486;52.502;13.486;2023-08-31T14:21:36;0.95;;;0.75;;
55609;SDS011;41486;52.502;13.486;2023-08-31T14:24:04;2.95;;;0.90;;
55609;SDS011;41486;52.502;13.486;2023-08-31T14:26:33;1.13;;;0.80;;
55609;SDS011;41486;52.502;13.486;2023-08-31T14:29:01;2.78;;;1.05;;
55609;SDS011;41486;52.502;13.486;2023-08-31T14:31:29;1.10;;;0.80;;
55609;SDS011;41486;52.502;13.486;2023-08-31T14:33:58;0.55;;;0.50;;
55609;SDS011;41486;52.502;13.486;2023-08-31T14:36:26;1.13;;;0.68;;
55609;SDS011;41486;52.502;13.486;2023-08-31T14:38:56;1.23;;;0.60;;
55609;SDS011;41486;52.502;13.486;2023-08-31T14:41:24;0.70;;;0.70;;
55609;SDS011;41486;52.502;13.486;2023-08-31T14:43:52;0.80;;;0.63;;
55609;SDS011;41486;52.502;13.486;2023-08-31T14:46:21;1.67;;;0.77;;
55609;SDS011;41486;52.502;13.486;2023-08-31T14:48:50;1.27;;;0.68;;
55609;SDS011;41486;52.502;13.486;2023-08-31T14:51:22;2.15;;;0.57;;
55609;SDS011;41486;52.502;13.486;2023-08-31T14:53:51;1.90;;;1.45;;
55609;SDS011;41486;52.502;13.486;2023-08-31T14:56:20;0.45;;;0.45;;